createdAt,value
2022-11-03T00:00:51.983Z,2.80
2022-11-03T00:01:53.862Z,2.58
2022-11-03T00:02:55.619Z,2.97
2022-11-03T00:03:57.303Z,2.60
2022-11-03T00:05:19.060Z,3.03
2022-11-03T00:06:20.708Z,3.00
2022-11-03T00:07:22.786Z,2.33
2022-11-03T00:08:24.452Z,3.38
2022-11-03T00:09:27.676Z,3.38
2022-11-03T00:10:30.898Z,2.30
2022-11-03T00:11:34.386Z,3.25
2022-11-03T00:12:36.115Z,2.45
2022-11-03T00:13:39.896Z,2.60
2022-11-03T00:14:41.723Z,2.75
2022-11-03T00:15:50.156Z,2.30
2022-11-03T00:16:52.526Z,3.55
2022-11-03T00:17:54.266Z,2.90
2022-11-03T00:18:56.053Z,2.80
2022-11-03T00:19:57.681Z,2.92
2022-11-03T00:21:02.685Z,2.58
2022-11-03T00:22:04.298Z,3.30
2022-11-03T00:23:06.073Z,2.47
2022-11-03T00:24:09.224Z,2.90
2022-11-03T00:25:11.123Z,2.88
2022-11-03T00:26:13.126Z,3.95
2022-11-03T00:27:16.405Z,2.40
2022-11-03T00:28:18.191Z,2.55
2022-11-03T00:29:19.834Z,2.30
2022-11-03T00:30:21.861Z,2.47
2022-11-03T00:31:27.291Z,2.45
2022-11-03T00:32:30.578Z,3.47
2022-11-03T00:33:33.668Z,3.25
2022-11-03T00:34:36.162Z,2.80
2022-11-03T00:35:37.729Z,2.40
2022-11-03T00:36:42.896Z,2.30
2022-11-03T00:37:44.834Z,2.40
2022-11-03T00:38:47.672Z,4.45
2022-11-03T00:39:53.566Z,2.90
2022-11-03T00:40:56.257Z,2.92
2022-11-03T00:41:57.870Z,2.47
2022-11-03T00:42:59.825Z,2.67
2022-11-03T00:44:03.189Z,2.50
2022-11-03T00:45:06.937Z,2.63
2022-11-03T00:46:09.889Z,3.20
2022-11-03T00:47:11.381Z,3.13
2022-11-03T00:48:31.789Z,2.05
2022-11-03T00:49:34.065Z,3.00
2022-11-03T00:50:35.625Z,2.03
2022-11-03T00:51:37.550Z,2.40
2022-11-03T00:52:40.179Z,2.20
2022-11-03T00:53:46.205Z,2.30
2022-11-03T00:54:52.748Z,2.33
2022-11-03T00:55:58.017Z,2.80
2022-11-03T00:56:59.674Z,2.20
2022-11-03T00:58:02.725Z,2.85
2022-11-03T00:59:06.086Z,2.55
2022-11-03T01:00:08.751Z,2.20
2022-11-03T01:01:12.840Z,2.97
2022-11-03T01:02:16.393Z,2.90
2022-11-03T01:03:18.294Z,2.80
2022-11-03T01:04:38.412Z,2.85
2022-11-03T01:06:02.819Z,2.72
2022-11-03T01:07:08.047Z,2.30
2022-11-03T01:08:09.819Z,2.47
2022-11-03T01:09:12.178Z,2.92
2022-11-03T01:10:13.830Z,3.15
2022-11-03T01:11:37.159Z,2.92
2022-11-03T01:12:39.622Z,2.10
2022-11-03T01:13:41.255Z,2.42
2022-11-03T01:14:51.933Z,2.55
2022-11-03T01:15:57.740Z,2.40
2022-11-03T01:17:00.059Z,3.00
2022-11-03T01:18:04.661Z,2.58
2022-11-03T01:19:07.262Z,2.65
2022-11-03T01:20:09.317Z,2.58
2022-11-03T01:21:11.232Z,2.55
2022-11-03T01:22:13.572Z,3.00
2022-11-03T01:23:15.320Z,2.50
2022-11-03T01:24:19.864Z,2.10
2022-11-03T01:25:22.157Z,2.85
2022-11-03T01:26:23.772Z,2.30
2022-11-03T01:27:26.155Z,2.28
2022-11-03T01:28:27.860Z,2.50
2022-11-03T01:29:29.578Z,2.58
2022-11-03T01:30:31.348Z,2.55
2022-11-03T01:31:33.748Z,2.20
2022-11-03T01:32:35.451Z,2.75
2022-11-03T01:33:37.769Z,2.72
2022-11-03T01:34:39.571Z,2.72
2022-11-03T01:35:41.618Z,2.20
2022-11-03T01:36:43.979Z,2.17
2022-11-03T01:37:47.262Z,3.35
2022-11-03T01:38:48.968Z,2.70
2022-11-03T01:39:50.499Z,3.67
2022-11-03T01:40:52.433Z,3.28
2022-11-03T01:41:54.384Z,2.90
2022-11-03T01:42:55.931Z,3.00
2022-11-03T01:44:09.374Z,3.10
2022-11-03T01:45:11.268Z,3.10
2022-11-03T01:46:27.538Z,2.70
2022-11-03T01:47:34.777Z,2.17
2022-11-03T01:48:41.742Z,2.95
2022-11-03T01:50:07.527Z,2.42
2022-11-03T01:51:13.477Z,3.08
2022-11-03T01:52:28.142Z,2.85
2022-11-03T01:53:30.436Z,3.22
2022-11-03T01:54:34.114Z,2.20
2022-11-03T01:55:40.086Z,1.92
2022-11-03T01:56:47.494Z,2.65
2022-11-03T01:58:06.027Z,2.90
2022-11-03T01:59:08.431Z,2.97
2022-11-03T02:00:11.086Z,2.50
2022-11-03T02:01:13.325Z,2.78
2022-11-03T02:02:15.329Z,2.10
2022-11-03T02:03:18.396Z,2.60
2022-11-03T02:04:29.187Z,2.38
2022-11-03T02:05:30.960Z,2.75
2022-11-03T02:06:32.743Z,2.80
2022-11-03T02:07:43.948Z,3.00
2022-11-03T02:08:54.472Z,2.13
2022-11-03T02:09:56.202Z,2.80
2022-11-03T02:10:59.076Z,2.72
2022-11-03T02:12:08.137Z,2.42
2022-11-03T02:13:19.535Z,2.30
2022-11-03T02:14:23.138Z,2.15
2022-11-03T02:15:26.097Z,2.45
2022-11-03T02:16:32.201Z,3.40
2022-11-03T02:17:36.059Z,2.50
2022-11-03T02:18:39.632Z,2.30
2022-11-03T02:19:59.742Z,2.65
2022-11-03T02:21:26.359Z,2.50
2022-11-03T02:22:54.085Z,2.20
2022-11-03T02:24:20.198Z,2.30
2022-11-03T02:25:46.623Z,2.30
2022-11-03T02:26:50.738Z,2.72
2022-11-03T02:27:52.625Z,3.00
2022-11-03T02:28:55.594Z,2.70
2022-11-03T02:29:59.561Z,2.60
2022-11-03T02:31:17.090Z,2.47
2022-11-03T02:32:23.862Z,2.97
2022-11-03T02:33:52.983Z,2.72
2022-11-03T02:35:01.663Z,2.28
2022-11-03T02:36:17.503Z,2.15
2022-11-03T02:37:27.278Z,3.17
2022-11-03T02:38:32.715Z,2.53
2022-11-03T02:39:44.332Z,2.40
2022-11-03T02:40:50.939Z,2.90
2022-11-03T02:41:56.249Z,2.85
2022-11-03T02:42:59.885Z,2.28
2022-11-03T02:44:03.048Z,2.70
2022-11-03T02:45:11.968Z,2.70
2022-11-03T02:46:21.460Z,2.80
2022-11-03T02:47:27.101Z,2.90
2022-11-03T02:48:28.788Z,2.67
2022-11-03T02:49:30.849Z,2.13
2022-11-03T02:50:34.539Z,2.30
2022-11-03T02:51:36.455Z,2.30
2022-11-03T02:52:48.489Z,2.33
2022-11-03T02:54:05.525Z,2.00
2022-11-03T02:55:45.399Z,2.92
2022-11-03T02:56:53.207Z,2.50
2022-11-03T02:58:25.665Z,1.98
2022-11-03T02:59:34.567Z,2.20
2022-11-03T03:00:51.837Z,2.58
2022-11-03T03:02:08.414Z,2.50
2022-11-03T03:03:44.302Z,2.17
2022-11-03T03:05:02.972Z,2.00
2022-11-03T03:06:14.186Z,2.40
2022-11-03T03:07:22.295Z,2.25
2022-11-03T03:08:26.997Z,1.85
2022-11-03T03:09:35.160Z,2.60
2022-11-03T03:10:42.514Z,2.35
2022-11-03T03:11:48.013Z,2.40
2022-11-03T03:12:54.625Z,2.38
2022-11-03T03:13:56.196Z,1.85
2022-11-03T03:15:00.363Z,2.50
2022-11-03T03:16:25.057Z,2.28
2022-11-03T03:17:57.230Z,1.70
2022-11-03T03:19:16.418Z,2.15
2022-11-03T03:20:18.283Z,1.77
2022-11-03T03:21:27.160Z,2.50
2022-11-03T03:22:42.774Z,1.88
2022-11-03T03:23:54.901Z,2.00
2022-11-03T03:25:25.061Z,2.10
2022-11-03T03:26:27.400Z,2.15
2022-11-03T03:27:35.860Z,1.75
2022-11-03T03:28:48.132Z,2.55
2022-11-03T03:29:54.794Z,1.83
2022-11-03T03:31:00.121Z,2.28
2022-11-03T03:32:06.624Z,2.78
2022-11-03T03:33:11.476Z,1.55
2022-11-03T03:34:33.911Z,2.20
2022-11-03T03:35:41.273Z,2.00
2022-11-03T03:36:46.338Z,2.03
2022-11-03T03:37:52.377Z,2.13
2022-11-03T03:39:02.305Z,2.60
2022-11-03T03:40:11.209Z,2.42
2022-11-03T03:41:22.381Z,2.30
2022-11-03T03:42:29.506Z,1.50
2022-11-03T03:43:39.843Z,1.95
2022-11-03T03:44:44.101Z,2.25
2022-11-03T03:45:48.583Z,1.98
2022-11-03T03:46:59.257Z,1.90
2022-11-03T03:48:01.332Z,1.88
2022-11-03T03:49:03.402Z,2.17
2022-11-03T03:50:08.419Z,1.83
2022-11-03T03:51:12.594Z,1.85
2022-11-03T03:52:15.618Z,2.30
2022-11-03T03:53:19.570Z,2.30
2022-11-03T03:54:21.211Z,1.38
2022-11-03T03:55:30.635Z,2.15
2022-11-03T03:56:45.849Z,1.90
2022-11-03T03:57:49.034Z,2.30
2022-11-03T03:58:52.644Z,1.75
2022-11-03T03:59:55.283Z,2.10
2022-11-03T04:00:57.083Z,2.58
2022-11-03T04:02:00.005Z,2.13
2022-11-03T04:03:01.991Z,1.73
2022-11-03T04:04:03.723Z,1.75
2022-11-03T04:05:07.347Z,1.70
2022-11-03T04:06:09.721Z,1.60
2022-11-03T04:07:30.439Z,2.60
2022-11-03T04:08:32.296Z,2.08
2022-11-03T04:09:35.722Z,2.33
2022-11-03T04:10:37.491Z,2.50
2022-11-03T04:11:58.287Z,3.25
2022-11-03T04:13:18.608Z,2.20
2022-11-03T04:14:38.958Z,1.60
2022-11-03T04:15:53.128Z,2.40
2022-11-03T04:17:24.462Z,2.50
2022-11-03T04:18:46.048Z,2.00
2022-11-03T04:20:06.800Z,2.25
2022-11-03T04:21:31.515Z,2.42
2022-11-03T04:22:33.747Z,1.75
2022-11-03T04:23:35.563Z,2.28
2022-11-03T04:24:37.454Z,2.33
2022-11-03T04:25:39.133Z,1.75
2022-11-03T04:26:41.056Z,2.13
2022-11-03T04:27:42.650Z,2.10
2022-11-03T04:28:45.912Z,2.35
2022-11-03T04:29:47.618Z,1.60
2022-11-03T04:30:53.295Z,1.50
2022-11-03T04:31:58.007Z,1.85
2022-11-03T04:32:59.773Z,2.80
2022-11-03T04:34:04.595Z,2.30
2022-11-03T04:35:25.221Z,2.25
2022-11-03T04:36:27.432Z,2.60
2022-11-03T04:37:29.776Z,1.80
2022-11-03T04:38:31.958Z,2.65
2022-11-03T04:39:33.658Z,1.80
2022-11-03T04:40:35.602Z,2.13
2022-11-03T04:41:39.596Z,2.70
2022-11-03T04:42:41.713Z,2.50
2022-11-03T04:43:46.598Z,2.10
2022-11-03T04:44:50.743Z,2.00
2022-11-03T04:45:53.101Z,2.53
2022-11-03T04:46:54.788Z,2.22
2022-11-03T04:48:01.757Z,2.30
2022-11-03T04:49:05.728Z,2.13
2022-11-03T04:50:15.747Z,2.22
2022-11-03T04:51:20.002Z,2.47
2022-11-03T04:52:22.598Z,2.15
2022-11-03T04:53:28.358Z,2.50
2022-11-03T04:54:31.405Z,2.17
2022-11-03T04:55:33.289Z,2.05
2022-11-03T04:56:34.888Z,1.92
2022-11-03T04:57:37.103Z,2.33
2022-11-03T04:58:38.779Z,2.17
2022-11-03T04:59:43.610Z,2.20
2022-11-03T05:00:45.462Z,2.50
2022-11-03T05:01:47.299Z,2.40
2022-11-03T05:02:54.808Z,2.53
2022-11-03T05:03:58.341Z,2.60
2022-11-03T05:05:00.261Z,2.92
2022-11-03T05:06:20.086Z,2.03
2022-11-03T05:07:31.376Z,3.47
2022-11-03T05:08:33.547Z,2.35
2022-11-03T05:09:41.767Z,2.42
2022-11-03T05:10:45.676Z,2.20
2022-11-03T05:11:49.462Z,2.90
2022-11-03T05:12:54.616Z,3.08
2022-11-03T05:14:02.654Z,2.40
2022-11-03T05:15:13.875Z,2.50
2022-11-03T05:16:17.053Z,2.53
2022-11-03T05:17:24.274Z,3.05
2022-11-03T05:18:33.036Z,3.25
2022-11-03T05:19:38.668Z,2.05
2022-11-03T05:20:49.520Z,2.55
2022-11-03T05:21:54.452Z,3.05
2022-11-03T05:22:56.102Z,3.15
2022-11-03T05:24:03.512Z,3.42
2022-11-03T05:25:41.029Z,2.88
2022-11-03T05:26:43.368Z,2.90
2022-11-03T05:27:46.321Z,3.35
2022-11-03T05:28:53.487Z,2.90
2022-11-03T05:30:00.817Z,3.42
2022-11-03T05:31:21.467Z,2.78
2022-11-03T05:32:26.522Z,3.05
2022-11-03T05:33:37.709Z,2.83
2022-11-03T05:34:56.323Z,3.00
2022-11-03T05:36:03.068Z,3.20
2022-11-03T05:37:12.090Z,2.50
2022-11-03T05:38:16.823Z,2.60
2022-11-03T05:39:21.771Z,2.75
2022-11-03T05:40:26.905Z,3.13
2022-11-03T05:41:31.039Z,2.78
2022-11-03T05:42:39.905Z,3.60
2022-11-03T05:43:43.572Z,3.35
2022-11-03T05:44:45.795Z,2.30
2022-11-03T05:45:55.497Z,2.80
2022-11-03T05:46:58.436Z,2.90
2022-11-03T05:48:02.586Z,2.97
2022-11-03T05:49:07.094Z,3.08
2022-11-03T05:50:20.567Z,2.92
2022-11-03T05:51:25.566Z,2.80
2022-11-03T05:52:28.478Z,2.00
2022-11-03T05:53:39.021Z,2.55
2022-11-03T05:54:41.855Z,2.42
2022-11-03T05:55:44.109Z,2.80
2022-11-03T05:56:45.771Z,3.25
2022-11-03T05:57:47.375Z,2.25
2022-11-03T05:58:51.122Z,2.42
2022-11-03T05:59:53.939Z,2.50
2022-11-03T06:00:59.396Z,2.60
2022-11-03T06:02:01.708Z,2.78
2022-11-03T06:03:04.562Z,2.67
2022-11-03T06:04:27.014Z,3.55
2022-11-03T06:05:31.225Z,2.88
2022-11-03T06:06:38.671Z,2.78
2022-11-03T06:07:41.484Z,3.53
2022-11-03T06:08:46.098Z,4.07
2022-11-03T06:09:51.710Z,3.58
2022-11-03T06:10:55.551Z,3.75
2022-11-03T06:12:03.603Z,3.10
2022-11-03T06:13:13.974Z,2.70
2022-11-03T06:14:24.489Z,3.05
2022-11-03T06:15:37.029Z,2.90
2022-11-03T06:16:43.143Z,3.13
2022-11-03T06:17:45.009Z,2.60
2022-11-03T06:18:47.823Z,2.30
2022-11-03T06:19:52.520Z,2.80
2022-11-03T06:20:58.259Z,2.90
2022-11-03T06:22:14.438Z,2.75
2022-11-03T06:23:18.843Z,4.75
2022-11-03T06:24:26.061Z,8.55
2022-11-03T06:25:36.324Z,6.55
2022-11-03T06:26:40.164Z,4.70
2022-11-03T06:27:42.431Z,3.95
2022-11-03T06:28:45.305Z,4.10
2022-11-03T06:29:52.347Z,4.40
2022-11-03T06:30:57.724Z,4.32
2022-11-03T06:32:01.904Z,3.40
2022-11-03T06:33:35.748Z,3.72
2022-11-03T06:34:52.417Z,5.25
2022-11-03T06:36:12.656Z,4.63
2022-11-03T06:37:20.605Z,4.60
2022-11-03T06:38:26.746Z,3.60
2022-11-03T06:39:28.753Z,4.38
2022-11-03T06:40:39.717Z,2.90
2022-11-03T06:41:41.704Z,1.98
2022-11-03T06:42:43.645Z,2.60
2022-11-03T06:43:47.682Z,2.15
2022-11-03T06:44:52.567Z,2.13
2022-11-03T06:46:06.150Z,2.60
2022-11-03T06:47:21.452Z,2.67
2022-11-03T06:48:35.498Z,2.95
2022-11-03T06:49:38.055Z,2.78
2022-11-03T06:50:44.713Z,2.63
2022-11-03T06:51:46.914Z,2.33
2022-11-03T06:52:50.095Z,2.78
2022-11-03T06:53:54.249Z,3.03
2022-11-03T06:55:10.747Z,2.70
2022-11-03T06:56:20.932Z,2.20
2022-11-03T06:57:23.691Z,2.10
2022-11-03T06:58:37.859Z,1.80
2022-11-03T06:59:43.667Z,1.92
2022-11-03T07:00:51.738Z,2.38
2022-11-03T07:01:56.181Z,2.30
2022-11-03T07:02:58.686Z,2.05
2022-11-03T07:04:04.715Z,2.20
2022-11-03T07:05:22.686Z,2.05
2022-11-03T07:06:31.288Z,2.33
2022-11-03T07:07:33.126Z,1.90
2022-11-03T07:08:41.336Z,2.20
2022-11-03T07:09:43.938Z,2.35
2022-11-03T07:10:46.868Z,2.28
2022-11-03T07:11:52.286Z,2.72
2022-11-03T07:12:56.471Z,2.83
2022-11-03T07:14:04.082Z,2.22
2022-11-03T07:15:21.794Z,2.20
2022-11-03T07:16:31.412Z,2.25
2022-11-03T07:17:34.693Z,2.15
2022-11-03T07:18:42.754Z,2.30
2022-11-03T07:19:46.060Z,2.10
2022-11-03T07:20:48.775Z,2.45
2022-11-03T07:21:53.063Z,2.80
2022-11-03T07:22:57.622Z,2.30
2022-11-03T07:24:02.547Z,1.95
2022-11-03T07:25:12.730Z,2.03
2022-11-03T07:26:15.918Z,2.67
2022-11-03T07:27:17.745Z,2.85
2022-11-03T07:28:19.853Z,2.60
2022-11-03T07:29:27.311Z,3.40
2022-11-03T07:30:35.013Z,3.45
2022-11-03T07:31:36.758Z,3.28
2022-11-03T07:32:39.590Z,4.03
2022-11-03T07:33:42.010Z,3.33
2022-11-03T07:34:46.258Z,3.55
2022-11-03T07:37:16.077Z,3.88
2022-11-03T07:38:23.183Z,4.10
2022-11-03T07:39:29.888Z,3.83
2022-11-03T07:40:35.261Z,3.20
2022-11-03T07:41:38.846Z,4.00
2022-11-03T07:42:40.696Z,3.10
2022-11-03T07:43:49.510Z,3.35
2022-11-03T07:44:54.480Z,3.22
2022-11-03T07:46:01.700Z,2.83
2022-11-03T07:47:03.425Z,2.70
2022-11-03T07:48:45.560Z,2.30
2022-11-03T07:49:47.879Z,3.20
2022-11-03T07:50:55.394Z,2.00
2022-11-03T07:52:00.041Z,2.57
2022-11-03T07:53:01.915Z,2.80
2022-11-03T07:54:28.489Z,2.73
2022-11-03T07:55:31.574Z,2.10
2022-11-03T07:56:42.243Z,2.60
2022-11-03T07:57:44.861Z,2.80
2022-11-03T07:58:50.453Z,2.80
2022-11-03T07:59:57.178Z,3.00
2022-11-03T08:01:01.554Z,3.13
2022-11-03T08:02:23.720Z,2.93
2022-11-03T08:03:33.760Z,3.30
2022-11-03T08:04:36.279Z,3.73
2022-11-03T08:05:39.795Z,5.03
2022-11-03T08:06:42.912Z,16.30
2022-11-03T08:07:45.616Z,12.70
2022-11-03T08:08:47.492Z,7.23
2022-11-03T08:09:49.558Z,3.90
2022-11-03T08:10:52.275Z,4.13
2022-11-03T08:11:54.930Z,3.73
2022-11-03T08:12:56.872Z,3.83
2022-11-03T08:13:59.059Z,3.30
2022-11-03T08:15:03.630Z,2.90
2022-11-03T08:16:05.936Z,3.40
2022-11-03T08:17:07.726Z,3.77
2022-11-03T08:18:09.389Z,3.40
2022-11-03T08:19:11.049Z,3.10
2022-11-03T08:20:12.896Z,3.30
2022-11-03T08:21:15.861Z,3.40
2022-11-03T08:22:17.883Z,4.17
2022-11-03T08:23:25.814Z,3.80
2022-11-03T08:24:28.085Z,3.90
2022-11-03T08:25:31.298Z,3.43
2022-11-03T08:26:32.882Z,3.90
2022-11-03T08:27:41.603Z,4.37
2022-11-03T08:28:44.388Z,3.67
2022-11-03T08:29:47.869Z,3.10
2022-11-03T08:30:50.132Z,2.77
2022-11-03T08:31:54.671Z,2.20
2022-11-03T08:32:56.704Z,2.67
2022-11-03T08:33:58.415Z,2.30
2022-11-03T08:35:00.028Z,3.10
2022-11-03T08:36:04.642Z,2.63
2022-11-03T08:37:06.296Z,2.90
2022-11-03T08:38:09.828Z,2.40
2022-11-03T08:39:14.079Z,2.30
2022-11-03T08:40:15.887Z,2.73
2022-11-03T08:41:18.442Z,1.93
2022-11-03T08:42:21.306Z,2.60
2022-11-03T08:43:23.693Z,2.23
2022-11-03T08:44:26.442Z,2.50
2022-11-03T08:45:28.215Z,3.20
2022-11-03T08:46:30.071Z,2.43
2022-11-03T08:47:34.281Z,2.00
2022-11-03T08:48:36.103Z,4.97
2022-11-03T08:49:38.050Z,2.97
2022-11-03T08:50:40.909Z,2.77
2022-11-03T08:51:44.660Z,5.30
2022-11-03T08:52:49.901Z,3.30
2022-11-03T08:53:55.237Z,3.53
2022-11-03T08:54:58.728Z,3.50
2022-11-03T08:56:00.675Z,3.80
2022-11-03T08:57:02.323Z,4.20
2022-11-03T08:58:04.114Z,3.57
2022-11-03T08:59:06.198Z,3.77
2022-11-03T09:00:08.612Z,3.10
2022-11-03T09:01:10.240Z,3.50
2022-11-03T09:02:11.859Z,2.90
2022-11-03T09:03:15.908Z,3.40
2022-11-03T09:04:21.055Z,3.00
2022-11-03T09:05:23.026Z,2.83
2022-11-03T09:06:24.692Z,2.53
2022-11-03T09:10:21.229Z,2.57
2022-11-03T09:11:26.174Z,2.57
2022-11-03T09:12:27.909Z,3.13
2022-11-03T09:13:29.913Z,3.13
2022-11-03T09:14:32.234Z,3.67
2022-11-03T09:15:35.936Z,2.90
2022-11-03T09:16:38.975Z,3.03
2022-11-03T09:17:44.681Z,3.30
2022-11-03T09:18:47.562Z,3.70
2022-11-03T09:19:49.911Z,4.50
2022-11-03T09:20:51.730Z,4.60
2022-11-03T09:21:53.478Z,4.10
2022-11-03T09:22:56.694Z,3.83
2022-11-03T09:24:00.349Z,3.30
2022-11-03T09:25:02.586Z,3.47
2022-11-03T09:26:06.202Z,4.13
2022-11-03T09:27:10.476Z,4.03
2022-11-03T09:28:12.344Z,3.43
2022-11-03T09:29:14.031Z,4.00
2022-11-03T09:30:16.011Z,3.87
2022-11-03T09:31:20.760Z,3.77
2022-11-03T09:32:23.672Z,3.73
2022-11-03T09:33:26.197Z,3.33
2022-11-03T09:34:29.591Z,3.73
2022-11-03T09:35:32.715Z,3.70
2022-11-03T09:36:34.954Z,3.60
2022-11-03T09:37:38.682Z,2.97
2022-11-03T09:38:41.442Z,3.23
2022-11-03T09:39:43.713Z,3.20
2022-11-03T09:40:45.620Z,3.63
2022-11-03T09:41:58.634Z,3.70
2022-11-03T09:43:01.035Z,3.57
2022-11-03T09:44:04.844Z,3.93
2022-11-03T09:45:09.051Z,3.57
2022-11-03T09:46:11.365Z,3.20
2022-11-03T09:47:23.335Z,3.60
2022-11-03T09:48:25.678Z,3.53
2022-11-03T09:49:31.638Z,3.53
2022-11-03T09:50:34.243Z,3.17
2022-11-03T09:51:37.472Z,3.60
2022-11-03T09:52:39.791Z,3.47
2022-11-03T09:53:41.974Z,3.83
2022-11-03T09:54:43.942Z,4.03
2022-11-03T09:55:45.996Z,3.67
2022-11-03T09:56:47.909Z,3.27
2022-11-03T09:57:52.124Z,4.23
2022-11-03T09:58:54.879Z,3.00
2022-11-03T09:59:57.033Z,3.60
2022-11-03T10:01:00.823Z,3.30
2022-11-03T10:02:02.667Z,3.90
2022-11-03T10:03:05.445Z,3.47
2022-11-03T10:04:12.681Z,3.00
2022-11-03T10:05:19.468Z,3.10
2022-11-03T10:06:22.399Z,3.10
2022-11-03T10:07:26.811Z,3.50
2022-11-03T10:08:32.301Z,3.20
2022-11-03T10:09:34.923Z,2.80
2022-11-03T10:10:38.308Z,3.40
2022-11-03T10:11:40.946Z,2.87
2022-11-03T10:12:43.779Z,2.50
2022-11-03T10:13:49.858Z,3.67
2022-11-03T10:14:54.655Z,3.60
2022-11-03T10:15:57.695Z,3.33
2022-11-03T10:17:01.179Z,3.40
2022-11-03T10:18:03.455Z,3.17
2022-11-03T10:19:09.328Z,4.03
2022-11-03T10:20:17.259Z,3.93
2022-11-03T10:21:26.657Z,3.67
2022-11-03T10:22:28.254Z,4.20
2022-11-03T10:23:31.087Z,4.10
2022-11-03T10:24:34.186Z,3.93
2022-11-03T10:25:42.477Z,4.13
2022-11-03T10:26:49.107Z,3.60
2022-11-03T10:27:50.888Z,3.67
2022-11-03T10:29:05.665Z,3.67
2022-11-03T10:30:11.601Z,3.90
2022-11-03T10:31:23.435Z,3.77
2022-11-03T10:32:32.039Z,3.40
2022-11-03T10:33:36.120Z,4.57
2022-11-03T10:34:39.811Z,3.87
2022-11-03T10:35:42.346Z,3.40
2022-11-03T10:36:49.550Z,4.47
2022-11-03T10:37:53.678Z,3.80
2022-11-03T10:38:55.898Z,3.47
2022-11-03T10:39:58.715Z,4.27
2022-11-03T10:41:27.142Z,3.00
2022-11-03T10:42:35.271Z,4.10
2022-11-03T10:43:39.754Z,3.87
2022-11-03T10:44:42.715Z,3.53
2022-11-03T10:45:44.672Z,4.03
2022-11-03T10:47:05.920Z,3.80
2022-11-03T10:48:10.514Z,4.10
2022-11-03T10:49:12.253Z,3.67
2022-11-03T10:50:27.386Z,3.70
2022-11-03T10:51:35.227Z,3.50
2022-11-03T10:52:38.077Z,4.33
2022-11-03T10:53:42.795Z,4.03
2022-11-03T10:54:47.632Z,4.10
2022-11-03T10:55:49.267Z,4.40
2022-11-03T10:56:52.637Z,4.03
2022-11-03T10:57:56.207Z,4.43
2022-11-03T10:59:00.573Z,5.00
2022-11-03T11:00:04.849Z,3.43
2022-11-03T11:01:14.146Z,3.87
2022-11-03T11:02:31.612Z,3.90
2022-11-03T11:03:40.199Z,4.57
2022-11-03T11:04:42.673Z,4.00
2022-11-03T11:05:47.156Z,4.83
2022-11-03T11:06:49.477Z,4.03
2022-11-03T11:07:53.089Z,3.83
2022-11-03T11:09:03.921Z,4.30
2022-11-03T11:10:12.847Z,3.90
2022-11-03T11:11:17.281Z,3.97
2022-11-03T11:12:24.954Z,4.57
2022-11-03T11:13:28.636Z,3.33
2022-11-03T11:14:30.320Z,3.20
2022-11-03T11:15:39.703Z,2.93
2022-11-03T11:16:52.806Z,3.20
2022-11-03T11:17:56.413Z,3.37
2022-11-03T11:18:58.039Z,3.40
2022-11-03T11:20:19.599Z,3.47
2022-11-03T11:21:21.490Z,3.73
2022-11-03T11:22:23.795Z,3.70
2022-11-03T11:23:32.365Z,4.20
2022-11-03T11:24:42.589Z,3.70
2022-11-03T11:26:25.721Z,3.67
2022-11-03T11:27:36.230Z,4.10
2022-11-03T11:28:43.822Z,3.30
2022-11-03T11:29:45.630Z,3.43
2022-11-03T11:30:57.627Z,3.97
2022-11-03T11:32:00.696Z,3.90
2022-11-03T11:33:22.306Z,4.23
2022-11-03T11:34:36.410Z,3.80
2022-11-03T11:35:38.193Z,3.80
2022-11-03T11:36:43.199Z,3.80
2022-11-03T11:37:45.097Z,4.20
2022-11-03T11:38:53.840Z,3.90
2022-11-03T11:39:55.638Z,3.87
2022-11-03T11:40:57.730Z,4.30
2022-11-03T11:42:17.605Z,4.10
2022-11-03T11:43:19.423Z,3.30
2022-11-03T11:44:42.558Z,4.30
2022-11-03T11:46:22.217Z,3.87
2022-11-03T11:47:25.929Z,3.60
2022-11-03T11:48:28.246Z,3.93
2022-11-03T11:49:30.203Z,4.63
2022-11-03T11:50:32.609Z,4.77
2022-11-03T11:51:35.564Z,4.10
2022-11-03T11:52:42.009Z,4.20
2022-11-03T11:53:45.329Z,4.80
2022-11-03T11:54:48.101Z,5.27
2022-11-03T11:56:03.197Z,4.40
2022-11-03T11:57:19.649Z,4.93
2022-11-03T11:58:51.562Z,9.00
2022-11-03T11:59:54.489Z,6.20
2022-11-03T12:01:13.558Z,5.87
2022-11-03T12:02:29.388Z,5.80
2022-11-03T12:03:52.564Z,6.10
2022-11-03T12:05:03.979Z,5.43
2022-11-03T12:06:06.653Z,5.90
2022-11-03T12:07:20.118Z,6.30
2022-11-03T12:08:29.676Z,4.87
2022-11-03T12:09:31.318Z,4.60
2022-11-03T12:10:33.017Z,5.40
2022-11-03T12:11:47.670Z,5.00
2022-11-03T12:12:50.715Z,5.50
2022-11-03T12:13:53.107Z,5.43
2022-11-03T12:14:54.749Z,5.33
2022-11-03T12:15:57.469Z,5.73
2022-11-03T12:17:19.723Z,5.70
2022-11-03T12:18:39.905Z,9.10
2022-11-03T12:19:54.536Z,6.80
2022-11-03T12:21:00.311Z,11.03
2022-11-03T12:22:04.666Z,10.53
2022-11-03T12:23:07.426Z,8.33
2022-11-03T12:24:32.274Z,6.33
2022-11-03T12:25:38.407Z,5.50
2022-11-03T12:26:42.762Z,5.03
2022-11-03T12:27:44.507Z,6.33
2022-11-03T12:28:46.608Z,5.10
2022-11-03T12:29:48.731Z,5.97
2022-11-03T12:30:52.805Z,5.13
2022-11-03T12:31:54.638Z,5.50
2022-11-03T12:32:58.121Z,5.63
2022-11-03T12:33:59.857Z,5.97
2022-11-03T12:35:06.645Z,5.10
2022-11-03T12:36:09.411Z,5.20
2022-11-03T12:37:12.663Z,4.97
2022-11-03T12:38:16.128Z,4.63
2022-11-03T12:39:17.668Z,5.10
2022-11-03T12:40:20.337Z,5.47
2022-11-03T12:41:21.955Z,5.43
2022-11-03T12:42:25.424Z,6.03
2022-11-03T12:43:29.194Z,5.30
2022-11-03T12:44:30.880Z,6.13
2022-11-03T12:45:32.634Z,5.93
2022-11-03T12:46:37.035Z,4.67
2022-11-03T12:47:39.155Z,5.07
2022-11-03T12:48:44.780Z,5.80
2022-11-03T12:49:46.443Z,5.53
2022-11-03T12:50:49.437Z,5.47
2022-11-03T12:51:52.161Z,5.60
2022-11-03T12:52:53.819Z,5.30
2022-11-03T12:53:55.522Z,6.17
2022-11-03T12:54:58.947Z,5.30
2022-11-03T12:56:00.823Z,5.23
2022-11-03T12:57:02.819Z,5.53
2022-11-03T12:58:06.402Z,6.00
2022-11-03T12:59:10.036Z,5.30
2022-11-03T13:00:12.938Z,5.20
2022-11-03T13:01:14.759Z,5.60
2022-11-03T13:02:17.231Z,4.93
2022-11-03T13:03:19.211Z,5.47
2022-11-03T13:04:21.256Z,4.57
2022-11-03T13:05:25.306Z,5.90
2022-11-03T13:06:29.561Z,5.80
2022-11-03T13:07:34.771Z,4.50
2022-11-03T13:08:37.529Z,5.13
2022-11-03T13:09:40.386Z,5.17
2022-11-03T13:10:43.399Z,4.67
2022-11-03T13:12:04.369Z,5.40
2022-11-03T13:13:08.986Z,5.33
2022-11-03T13:14:11.021Z,5.63
2022-11-03T13:15:13.654Z,4.90
2022-11-03T13:16:16.509Z,5.60
2022-11-03T13:17:18.183Z,5.73
2022-11-03T13:18:21.588Z,6.00
2022-11-03T13:19:23.596Z,6.50
2022-11-03T13:20:25.528Z,5.97
2022-11-03T13:21:27.415Z,5.83
2022-11-03T13:22:30.220Z,5.50
2022-11-03T13:23:32.459Z,6.90
2022-11-03T13:24:35.829Z,6.50
2022-11-03T13:25:38.025Z,5.30
2022-11-03T13:26:40.101Z,5.90
2022-11-03T13:27:42.256Z,6.47
2022-11-03T13:28:44.158Z,5.50
2022-11-03T13:29:46.289Z,4.60
2022-11-03T13:30:49.266Z,6.23
2022-11-03T13:31:50.956Z,12.23
2022-11-03T13:32:53.649Z,10.97
2022-11-03T13:33:58.912Z,6.73
2022-11-03T13:35:01.936Z,6.53
2022-11-03T13:36:03.916Z,6.60
2022-11-03T13:37:05.843Z,5.40
2022-11-03T13:38:07.547Z,5.60
2022-11-03T13:39:10.007Z,5.50
2022-11-03T13:40:35.682Z,5.00
2022-11-03T13:41:38.153Z,4.50
2022-11-03T13:42:39.951Z,5.40
2022-11-03T13:43:41.748Z,5.30
2022-11-03T13:44:43.581Z,5.37
2022-11-03T13:45:46.153Z,5.40
2022-11-03T13:46:48.590Z,5.13
2022-11-03T13:48:29.059Z,5.20
2022-11-03T13:50:34.866Z,5.30
2022-11-03T13:51:37.665Z,5.90
2022-11-03T13:52:39.586Z,6.63
2022-11-03T13:56:30.137Z,5.80
2022-11-03T14:00:18.345Z,6.50
2022-11-03T14:01:20.916Z,6.07
2022-11-03T14:05:11.276Z,5.50
2022-11-03T14:06:13.744Z,4.43
2022-11-03T14:07:17.192Z,5.20
2022-11-03T14:08:21.465Z,5.60
2022-11-03T14:09:23.735Z,5.53
2022-11-03T14:10:25.470Z,5.63
2022-11-03T14:11:46.006Z,5.30
2022-11-03T14:12:48.096Z,5.50
2022-11-03T14:13:49.771Z,6.20
2022-11-03T14:14:51.290Z,5.73
2022-11-03T14:15:53.942Z,5.10
2022-11-03T14:16:55.744Z,6.20
2022-11-03T14:17:57.484Z,6.03
2022-11-03T14:19:00.899Z,4.73
2022-11-03T14:20:07.697Z,6.10
2022-11-03T14:21:09.414Z,5.40
2022-11-03T14:22:11.543Z,7.10
2022-11-03T14:23:13.711Z,6.17
2022-11-03T14:24:15.608Z,6.17
2022-11-03T14:25:20.135Z,5.80
2022-11-03T14:26:38.684Z,5.60
2022-11-03T14:27:44.793Z,5.90
2022-11-03T14:28:46.710Z,6.03
2022-11-03T14:29:50.000Z,6.63
2022-11-03T14:30:51.649Z,5.60
2022-11-03T14:31:53.700Z,6.17
2022-11-03T14:32:59.556Z,5.97
2022-11-03T14:34:03.250Z,6.13
2022-11-03T14:35:05.909Z,6.53
2022-11-03T14:36:07.906Z,6.50
2022-11-03T14:37:11.522Z,5.97
2022-11-03T14:38:13.170Z,6.47
2022-11-03T14:39:15.970Z,6.20
2022-11-03T14:40:38.187Z,6.03
2022-11-03T14:41:58.413Z,6.40
2022-11-03T14:43:00.837Z,5.23
2022-11-03T14:44:03.992Z,4.73
2022-11-03T14:45:06.216Z,6.20
2022-11-03T14:46:08.227Z,5.60
2022-11-03T14:47:13.034Z,5.60
2022-11-03T14:48:14.736Z,5.30
2022-11-03T14:49:16.618Z,5.17
2022-11-03T14:50:18.517Z,5.80
2022-11-03T14:51:20.926Z,5.93
2022-11-03T14:52:23.595Z,6.10
2022-11-03T14:53:25.899Z,5.60